Lawn Hill, Iowa
Current Conditions -  °F | °C
As of 2:53 PM on Friday 19 Dec 2014 (Local Time) from KMIW Reporting Station
Overcast Overcast  
Wind Chill: 22°   Ceiling: 4200
Heat Index: 30°   Visibility: 8mi
Dew Point: 25°   Wind: 9mph
Humidity: 82%   Direction: 150°SSE
Pressure: 30.23"   Gusts: NA
Location:  42.2453°N, 93.1762°W
Report Text: KMIW 192053Z AUTO 15008KT 8SM OVC042 M01/M04 A3023 RMK AO2 SLP248 T10111039 55005
Loading
Personal Weather Stations






























Interactive Weather Map New forecast layout! Learn more

10-Day Weather Forecast

Advertisements
Track Severe Weather on mobile